Time;durP1;ratioP1;P1;durP2;ratioP2;P2;SDS_P1;SDS_P2;PMS_P1;PMS_P2;Temp;Humidity;BMP_temperature;BMP_pressure;BME280_temperature;BME280_humidity;BME280_pressure;Samples;Min_cycle;Max_cycle;Signal;HPM_P1;HPM_P2
2022/12/18 00:00:08;;;;;;;4.80;4.27;;;-0.10;99.90;;;;;;5053286;28;20205;-87
2022/12/18 00:02:36;;;;;;;3.93;3.60;;;-0.10;99.90;;;;;;5053900;28;20213;-93
2022/12/18 00:05:06;;;;;;;5.07;3.87;;;-0.10;99.90;;;;;;5053065;28;20229;-93
2022/12/18 00:07:37;;;;;;;5.03;4.60;;;-0.10;99.90;;;;;;5055339;28;20237;-93
2022/12/18 00:10:07;;;;;;;5.17;4.67;;;-0.20;99.90;;;;;;5057123;28;20226;-94
2022/12/18 00:12:37;;;;;;;5.83;5.17;;;-0.20;99.90;;;;;;5054147;28;20297;-87
2022/12/18 00:15:06;;;;;;;4.47;3.87;;;-0.30;99.90;;;;;;5055117;28;20226;-87
2022/12/18 00:17:34;;;;;;;6.00;5.40;;;-0.30;99.90;;;;;;5055147;28;20210;-87
2022/12/18 00:20:03;;;;;;;4.40;4.00;;;-0.30;99.90;;;;;;5055715;28;20206;-87
2022/12/18 00:22:31;;;;;;;4.43;4.03;;;-0.30;99.90;;;;;;5055480;28;20209;-87
2022/12/18 00:24:59;;;;;;;5.97;5.03;;;-0.30;99.90;;;;;;5054940;28;20233;-87
2022/12/18 00:27:28;;;;;;;4.60;4.20;;;-0.40;99.90;;;;;;5055051;28;20211;-87
2022/12/18 00:29:57;;;;;;;4.80;4.30;;;-0.50;99.90;;;;;;5054874;28;20247;-87
2022/12/18 00:32:26;;;;;;;8.33;4.47;;;-0.50;99.90;;;;;;5055083;28;20213;-87
2022/12/18 00:34:54;;;;;;;5.63;4.30;;;-0.60;99.90;;;;;;5055062;28;20241;-87
2022/12/18 00:37:22;;;;;;;5.30;4.80;;;-0.60;99.90;;;;;;5054720;28;20215;-87
2022/12/18 00:39:50;;;;;;;4.60;4.13;;;-0.70;99.90;;;;;;5054790;28;20205;-87
2022/12/18 00:45:07;;;;;;;4.83;4.20;;;-0.70;99.90;;;;;;5054727;28;20222;-87
2022/12/18 00:47:40;;;;;;;5.63;4.43;;;-0.80;99.90;;;;;;5054624;28;20206;-87
2022/12/18 00:50:10;;;;;;;4.23;3.87;;;-0.80;99.90;;;;;;5054287;28;20230;-86
2022/12/18 00:52:42;;;;;;;8.03;4.93;;;-0.80;99.90;;;;;;5054817;28;20208;-86
2022/12/18 00:55:11;;;;;;;3.90;3.60;;;-0.80;99.90;;;;;;5054578;28;20228;-87
2022/12/18 00:57:39;;;;;;;3.93;3.53;;;-0.80;99.90;;;;;;5054308;28;20209;-87
2022/12/18 01:00:12;;;;;;;5.53;4.30;;;-0.90;99.90;;;;;;5054448;28;20201;-87
2022/12/18 01:02:41;;;;;;;5.50;4.20;;;-0.90;99.90;;;;;;5054544;28;20206;-92
2022/12/18 01:05:12;;;;;;;4.17;3.50;;;-0.90;99.90;;;;;;5055639;28;20236;-93
2022/12/18 01:07:40;;;;;;;10.63;4.30;;;-1.00;99.90;;;;;;5055415;28;20205;-92
2022/12/18 01:10:10;;;;;;;4.30;3.90;;;-1.00;99.90;;;;;;5056179;28;20223;-93
2022/12/18 01:12:39;;;;;;;4.67;4.03;;;-1.00;99.90;;;;;;5055028;28;20212;-93
2022/12/18 01:15:10;;;;;;;4.23;3.77;;;-1.00;99.90;;;;;;5054776;28;20221;-92
2022/12/18 01:17:39;;;;;;;4.10;3.70;;;-1.00;99.90;;;;;;5054283;28;20233;-94
2022/12/18 01:20:08;;;;;;;4.20;3.80;;;-1.00;99.90;;;;;;5054661;28;20202;-93
2022/12/18 01:22:37;;;;;;;4.90;4.43;;;-1.00;99.90;;;;;;5054404;28;20212;-93
2022/12/18 01:25:06;;;;;;;6.37;4.30;;;-1.00;99.90;;;;;;5054541;28;20236;-93
2022/12/18 01:27:35;;;;;;;5.30;4.80;;;-1.00;99.90;;;;;;5054208;28;20206;-94
2022/12/18 01:30:04;;;;;;;5.50;4.97;;;-1.10;99.90;;;;;;5055164;28;20229;-93
2022/12/18 01:32:34;;;;;;;6.43;5.77;;;-1.10;99.90;;;;;;5058036;28;20202;-93
2022/12/18 01:35:03;;;;;;;7.87;6.20;;;-1.20;99.90;;;;;;5054887;28;20225;-93
2022/12/18 01:37:31;;;;;;;6.10;5.50;;;-1.20;99.90;;;;;;5054476;28;20209;-93
2022/12/18 01:39:59;;;;;;;6.20;5.50;;;-1.20;99.90;;;;;;5054080;28;20208;-94
2022/12/18 01:42:27;;;;;;;8.30;6.23;;;-1.30;99.90;;;;;;5053822;28;20209;-94
2022/12/18 01:45:05;;;;;;;6.53;5.93;;;-1.30;99.90;;;;;;5053947;28;20233;-94
2022/12/18 01:47:39;;;;;;;12.83;7.23;;;-1.30;99.90;;;;;;5054047;28;20230;-94
2022/12/18 01:50:11;;;;;;;7.40;6.33;;;-1.40;99.90;;;;;;5054235;28;20305;-95
2022/12/18 01:52:43;;;;;;;6.77;6.07;;;-1.40;99.90;;;;;;5060678;28;20202;-93
2022/12/18 01:55:13;;;;;;;20.93;7.27;;;-1.40;99.90;;;;;;5053757;28;20322;-93
2022/12/18 01:57:42;;;;;;;9.60;7.37;;;-1.40;99.90;;;;;;5053411;28;20209;-93
2022/12/18 02:00:13;;;;;;;7.07;6.43;;;-1.40;99.90;;;;;;5053379;28;20224;-93
2022/12/18 02:02:45;;;;;;;8.20;7.03;;;-1.50;99.90;;;;;;5053395;28;20212;-94
2022/12/18 02:05:18;;;;;;;8.23;7.43;;;-1.40;99.90;;;;;;5054027;28;20229;-93
2022/12/18 02:07:55;;;;;;;8.77;7.33;;;-1.50;99.90;;;;;;5053570;28;20206;-94
2022/12/18 02:10:28;;;;;;;8.17;6.70;;;-1.50;99.90;;;;;;5053787;28;20227;-93
2022/12/18 02:13:08;;;;;;;8.57;7.13;;;-1.50;99.90;;;;;;5060885;28;20296;-93
2022/12/18 02:15:43;;;;;;;7.23;6.43;;;-1.50;99.90;;;;;;5053672;28;20229;-93
2022/12/18 02:18:17;;;;;;;12.17;7.60;;;-1.50;99.90;;;;;;5053305;28;20212;-93
2022/12/18 02:20:49;;;;;;;9.33;7.60;;;-1.50;99.90;;;;;;5053301;28;20211;-94
2022/12/18 02:23:31;;;;;;;9.30;8.30;;;-1.50;99.90;;;;;;5053096;28;20224;-93
2022/12/18 02:26:15;;;;;;;10.50;8.03;;;-1.60;99.90;;;;;;5052906;28;20216;-93
2022/12/18 02:28:47;;;;;;;9.97;7.67;;;-1.60;99.90;;;;;;5052794;28;20210;-93
2022/12/18 02:31:23;;;;;;;12.30;7.80;;;-1.60;99.90;;;;;;5052668;28;20225;-93
2022/12/18 02:33:57;;;;;;;12.00;8.73;;;-1.60;99.90;;;;;;5053074;28;20229;-94
2022/12/18 02:36:28;;;;;;;14.50;9.10;;;-1.60;99.90;;;;;;5052187;28;20236;-94
2022/12/18 02:38:59;;;;;;;10.43;8.50;;;-1.70;99.90;;;;;;5052974;28;20202;-93
2022/12/18 02:41:30;;;;;;;10.80;7.60;;;-1.60;99.90;;;;;;5053009;28;20202;-94
2022/12/18 02:44:02;;;;;;;7.63;6.83;;;-1.70;99.90;;;;;;5052932;28;20234;-93
2022/12/18 02:46:35;;;;;;;9.33;7.40;;;-1.70;99.90;;;;;;5053370;28;20200;-93
2022/12/18 02:49:13;;;;;;;9.70;7.10;;;-1.70;99.90;;;;;;5052745;28;20202;-93
2022/12/18 02:51:51;;;;;;;10.23;7.43;;;-1.70;99.90;;;;;;5053030;28;20209;-96
2022/12/18 02:54:30;;;;;;;8.37;7.37;;;-1.70;99.90;;;;;;5055347;28;20312;-95
2022/12/18 02:57:06;;;;;;;8.63;7.07;;;-1.80;99.90;;;;;;5053073;28;20210;-95
2022/12/18 02:59:42;;;;;;;9.20;8.07;;;-1.70;99.90;;;;;;5053135;28;20220;-93
2022/12/18 03:02:19;;;;;;;10.37;8.67;;;-1.70;99.90;;;;;;5052637;28;20217;-93
2022/12/18 03:04:51;;;;;;;8.80;7.90;;;-1.80;99.90;;;;;;5052637;28;20339;-93
2022/12/18 03:07:28;;;;;;;10.60;8.00;;;-1.70;99.90;;;;;;5052456;28;20209;-95
2022/12/18 03:09:57;;;;;;;10.53;8.03;;;-1.80;99.90;;;;;;5052741;28;20220;-94
2022/12/18 03:12:30;;;;;;;10.17;8.07;;;-1.80;99.90;;;;;;5052938;28;20217;-95
2022/12/18 03:15:03;;;;;;;11.33;8.33;;;-1.90;99.90;;;;;;5052570;28;20229;-95
2022/12/18 03:17:33;;;;;;;14.23;8.37;;;-1.80;99.90;;;;;;5052578;28;20204;-93
2022/12/18 03:20:07;;;;;;;9.13;7.30;;;-1.80;99.90;;;;;;5052492;28;20216;-93
2022/12/18 03:22:38;;;;;;;8.33;7.53;;;-1.90;99.90;;;;;;5052416;28;20212;-94
2022/12/18 03:25:10;;;;;;;10.23;8.07;;;-1.90;99.90;;;;;;5052570;28;20229;-94
2022/12/18 03:27:44;;;;;;;11.37;7.70;;;-1.90;99.90;;;;;;5052165;28;20294;-95
2022/12/18 03:30:15;;;;;;;13.13;8.63;;;-2.00;99.90;;;;;;5051963;28;20222;-94
2022/12/18 03:32:48;;;;;;;10.90;8.17;;;-2.00;99.90;;;;;;5052338;28;20205;-94
2022/12/18 03:35:26;;;;;;;9.93;8.17;;;-2.00;99.90;;;;;;5052158;28;20226;-93
2022/12/18 03:37:54;;;;;;;9.60;8.60;;;-2.00;99.90;;;;;;5052216;28;20206;-94
2022/12/18 03:40:31;;;;;;;10.67;8.90;;;-2.00;99.90;;;;;;5052529;28;20202;-94
2022/12/18 03:43:07;;;;;;;11.13;8.20;;;-2.00;99.90;;;;;;5052183;28;20210;-94
2022/12/18 03:45:42;;;;;;;11.97;9.33;;;-2.10;99.90;;;;;;5052135;28;20236;-94
2022/12/18 03:48:18;;;;;;;11.70;9.33;;;-2.10;99.90;;;;;;5055450;28;20213;-93
2022/12/18 03:50:53;;;;;;;8.73;7.60;;;-2.10;99.90;;;;;;5056066;28;20221;-94
2022/12/18 03:53:33;;;;;;;10.07;8.70;;;-2.10;99.90;;;;;;5056306;28;20205;-94
2022/12/18 03:56:03;;;;;;;8.90;7.60;;;-2.10;99.90;;;;;;5055658;28;20271;-93
2022/12/18 03:58:36;;;;;;;10.13;8.37;;;-2.10;99.90;;;;;;5055362;28;20224;-92
2022/12/18 04:01:10;;;;;;;8.97;7.70;;;-2.10;99.90;;;;;;5056006;28;20206;-94
2022/12/18 04:03:39;;;;;;;12.67;8.13;;;-2.10;99.90;;;;;;5055747;28;20198;-93
2022/12/18 04:06:09;;;;;;;10.07;7.60;;;-2.10;99.90;;;;;;5055606;28;20194;-93
2022/12/18 04:08:38;;;;;;;11.70;9.50;;;-2.10;99.90;;;;;;5055687;28;20209;-94
2022/12/18 04:11:06;;;;;;;11.87;7.47;;;-2.20;99.90;;;;;;5055439;28;20224;-93
2022/12/18 04:13:39;;;;;;;11.40;8.67;;;-2.20;99.90;;;;;;5055410;28;20204;-93
2022/12/18 04:16:09;;;;;;;9.80;8.03;;;-2.20;99.90;;;;;;5056984;28;20202;-93
2022/12/18 04:18:38;;;;;;;9.33;8.33;;;-2.30;99.90;;;;;;5059107;28;20206;-93
2022/12/18 04:21:06;;;;;;;14.30;9.00;;;-2.30;99.90;;;;;;5055794;28;20206;-93
2022/12/18 04:23:35;;;;;;;15.87;8.60;;;-2.30;99.90;;;;;;5055392;28;20208;-94
2022/12/18 04:26:04;;;;;;;11.57;8.60;;;-2.30;99.90;;;;;;5055242;28;20206;-93
2022/12/18 04:28:32;;;;;;;12.33;8.93;;;-2.30;99.90;;;;;;5058157;28;20292;-93
2022/12/18 04:31:02;;;;;;;10.87;8.30;;;-2.30;99.90;;;;;;5059165;28;20214;-94
2022/12/18 04:33:30;;;;;;;9.63;8.20;;;-2.40;99.90;;;;;;5055867;28;20264;-93
2022/12/18 04:35:59;;;;;;;13.43;9.40;;;-2.30;99.90;;;;;;5055318;28;20208;-94
2022/12/18 04:38:27;;;;;;;15.40;8.80;;;-2.30;99.90;;;;;;5054942;28;20202;-94
2022/12/18 04:40:56;;;;;;;10.63;9.27;;;-2.40;99.90;;;;;;5055257;28;20213;-93
2022/12/18 04:43:24;;;;;;;11.47;9.47;;;-2.40;99.90;;;;;;5055009;28;20296;-93
2022/12/18 04:45:52;;;;;;;12.27;9.53;;;-2.30;99.90;;;;;;5054830;28;20296;-93
2022/12/18 04:48:23;;;;;;;12.13;9.13;;;-2.30;99.90;;;;;;5054498;28;20209;-94
2022/12/18 04:50:51;;;;;;;11.13;8.90;;;-2.40;99.90;;;;;;5054929;28;20230;-94
2022/12/18 04:53:19;;;;;;;14.07;10.17;;;-2.40;99.90;;;;;;5054873;28;20216;-95
2022/12/18 04:55:48;;;;;;;11.77;9.87;;;-2.40;99.90;;;;;;5055052;28;20214;-95
2022/12/18 04:58:17;;;;;;;9.73;7.93;;;-2.40;99.90;;;;;;5053839;28;20300;-93
2022/12/18 05:00:45;;;;;;;13.83;9.80;;;-2.50;99.90;;;;;;5055026;28;20218;-94
2022/12/18 05:03:13;;;;;;;10.13;8.37;;;-2.50;99.90;;;;;;5054618;28;20201;-94
2022/12/18 05:05:43;;;;;;;10.77;8.63;;;-2.60;99.90;;;;;;5054448;28;20225;-95
2022/12/18 05:08:11;;;;;;;8.97;7.33;;;-2.60;99.90;;;;;;5055186;28;20209;-94
2022/12/18 05:10:40;;;;;;;8.00;7.17;;;-2.60;99.90;;;;;;5054636;28;20261;-94
2022/12/18 05:13:08;;;;;;;13.13;8.17;;;-2.60;99.90;;;;;;5055029;28;20202;-95
2022/12/18 05:15:37;;;;;;;9.57;7.00;;;-2.60;99.90;;;;;;5054493;28;20222;-93
2022/12/18 05:18:05;;;;;;;12.50;9.00;;;-2.60;99.90;;;;;;5054677;28;20205;-95
2022/12/18 05:20:34;;;;;;;10.27;8.27;;;-2.60;99.90;;;;;;5055090;28;20209;-94
2022/12/18 05:23:04;;;;;;;12.87;8.20;;;-2.60;99.90;;;;;;5054919;28;20209;-94
2022/12/18 05:25:32;;;;;;;7.73;6.77;;;-2.60;99.90;;;;;;5054297;28;20304;-95
2022/12/18 05:28:00;;;;;;;10.33;8.00;;;-2.70;99.90;;;;;;5054807;28;20198;-94
2022/12/18 05:30:29;;;;;;;9.63;7.87;;;-2.70;99.90;;;;;;5054769;28;20209;-94
2022/12/18 05:32:58;;;;;;;9.60;8.10;;;-2.70;99.90;;;;;;5055180;28;20232;-94
2022/12/18 05:35:26;;;;;;;9.10;7.73;;;-2.70;99.90;;;;;;5059258;28;20234;-94
2022/12/18 05:37:55;;;;;;;12.73;8.67;;;-2.70;99.90;;;;;;5055829;28;20204;-95
2022/12/18 05:40:24;;;;;;;10.87;8.20;;;-2.60;99.90;;;;;;5054960;28;20247;-94
2022/12/18 05:42:53;;;;;;;13.00;8.77;;;-2.70;99.90;;;;;;5055026;28;20297;-95
2022/12/18 05:45:21;;;;;;;9.87;8.73;;;-2.70;99.90;;;;;;5055460;28;20234;-95
2022/12/18 05:47:50;;;;;;;10.10;8.50;;;-2.70;99.90;;;;;;5055123;28;20206;-95
2022/12/18 05:50:18;;;;;;;12.30;9.20;;;-2.70;99.90;;;;;;5055242;28;20220;-96
2022/12/18 05:52:47;;;;;;;12.43;8.60;;;-2.70;99.90;;;;;;5055181;28;20255;-94
2022/12/18 05:55:15;;;;;;;9.33;7.87;;;-2.80;99.90;;;;;;5054851;28;20289;-96
2022/12/18 05:57:45;;;;;;;10.57;7.67;;;-2.80;99.90;;;;;;5054376;28;20201;-95
2022/12/18 06:00:15;;;;;;;9.07;8.07;;;-2.90;99.90;;;;;;5054328;28;20239;-94
2022/12/18 06:02:47;;;;;;;8.53;7.53;;;-3.00;99.90;;;;;;5054850;28;20204;-96
2022/12/18 06:05:16;;;;;;;9.57;8.40;;;-3.00;99.90;;;;;;5054672;28;20229;-94
2022/12/18 06:07:44;;;;;;;11.47;8.77;;;-2.90;99.90;;;;;;5057226;28;20290;-94
2022/12/18 06:10:13;;;;;;;12.27;9.33;;;-2.90;99.90;;;;;;5056541;28;20210;-94
2022/12/18 06:12:42;;;;;;;12.23;9.40;;;-2.90;99.90;;;;;;5054962;28;20226;-96
2022/12/18 06:15:12;;;;;;;9.87;8.50;;;-2.90;99.90;;;;;;5060659;28;20312;-95
2022/12/18 06:17:41;;;;;;;9.27;7.63;;;-3.00;99.90;;;;;;5054091;28;20205;-94
2022/12/18 06:20:10;;;;;;;7.73;6.93;;;-3.00;99.90;;;;;;5054486;28;20216;-95
2022/12/18 06:22:39;;;;;;;10.40;7.37;;;-3.10;99.90;;;;;;5053641;28;20205;-94
2022/12/18 06:25:08;;;;;;;11.13;8.17;;;-3.00;99.90;;;;;;5054423;28;20221;-95
2022/12/18 06:27:36;;;;;;;13.17;10.10;;;-3.00;99.90;;;;;;5054280;28;20205;-94
2022/12/18 06:30:07;;;;;;;13.30;9.73;;;-3.10;99.90;;;;;;5056684;28;20206;-94
2022/12/18 06:32:36;;;;;;;12.27;8.30;;;-3.00;99.90;;;;;;5055731;28;20225;-95
2022/12/18 06:35:06;;;;;;;12.93;9.50;;;-3.10;99.90;;;;;;5055161;28;20305;-95
2022/12/18 06:37:34;;;;;;;13.63;9.80;;;-3.10;99.90;;;;;;5061527;28;20209;-94
2022/12/18 06:40:03;;;;;;;19.53;10.53;;;-3.00;99.90;;;;;;5053824;28;20204;-93
2022/12/18 06:42:31;;;;;;;11.87;9.53;;;-3.10;99.90;;;;;;5054032;28;20265;-94
2022/12/18 06:45:00;;;;;;;13.80;10.33;;;-3.10;99.90;;;;;;5054299;28;20289;-94
2022/12/18 06:47:29;;;;;;;9.43;8.07;;;-3.00;99.90;;;;;;5053687;28;20205;-95
2022/12/18 06:49:58;;;;;;;15.17;9.50;;;-3.00;99.90;;;;;;5054068;28;20208;-95
2022/12/18 06:52:27;;;;;;;15.87;10.43;;;-3.00;99.90;;;;;;5056843;28;20228;-94
2022/12/18 06:54:55;;;;;;;16.83;11.07;;;-3.00;99.90;;;;;;5055704;28;20232;-95
2022/12/18 06:57:23;;;;;;;14.20;9.87;;;-3.00;99.90;;;;;;5053551;28;20219;-96
2022/12/18 06:59:51;;;;;;;14.43;11.07;;;-3.00;99.90;;;;;;5053693;28;20197;-94
2022/12/18 07:02:20;;;;;;;13.73;10.57;;;-3.00;99.90;;;;;;5054060;28;20213;-95
2022/12/18 07:04:51;;;;;;;15.23;11.00;;;-3.00;99.90;;;;;;5054148;28;20226;-94
2022/12/18 07:07:21;;;;;;;11.97;10.37;;;-3.00;99.90;;;;;;5053422;28;20209;-96
2022/12/18 07:09:51;;;;;;;21.00;11.20;;;-3.00;99.90;;;;;;5053911;28;20205;-94
2022/12/18 07:12:19;;;;;;;13.17;9.93;;;-2.90;99.90;;;;;;5053950;28;20225;-94
2022/12/18 07:14:48;;;;;;;12.13;10.43;;;-2.90;99.90;;;;;;5053535;28;20232;-94
2022/12/18 07:17:16;;;;;;;13.07;9.17;;;-2.90;99.90;;;;;;5054147;28;20215;-95
2022/12/18 07:19:44;;;;;;;14.07;11.00;;;-2.80;99.90;;;;;;5053866;28;20292;-95
2022/12/18 07:22:13;;;;;;;17.30;11.70;;;-2.80;99.90;;;;;;5055508;28;20198;-94
2022/12/18 07:24:43;;;;;;;13.10;10.10;;;-2.80;99.90;;;;;;5057672;28;20234;-95
2022/12/18 07:27:11;;;;;;;16.03;10.87;;;-2.80;99.90;;;;;;5057162;28;20292;-94
2022/12/18 07:29:40;;;;;;;14.67;10.83;;;-2.80;99.90;;;;;;5057255;28;20214;-94
2022/12/18 07:32:08;;;;;;;11.83;9.47;;;-2.80;99.90;;;;;;5057495;28;20240;-95
2022/12/18 07:34:37;;;;;;;14.83;11.30;;;-2.70;99.90;;;;;;5057179;28;20245;-95
2022/12/18 07:37:06;;;;;;;14.83;11.00;;;-2.70;99.90;;;;;;5057263;28;20201;-95
2022/12/18 07:39:34;;;;;;;17.30;11.00;;;-2.70;99.90;;;;;;5057350;28;20206;-94
2022/12/18 07:44:51;;;;;;;12.80;10.60;;;-2.60;99.90;;;;;;5057275;28;20226;-95
2022/12/18 07:47:20;;;;;;;16.23;11.40;;;-2.60;99.90;;;;;;5057023;28;20201;-95
2022/12/18 07:49:48;;;;;;;17.07;11.10;;;-2.50;99.90;;;;;;5057537;28;20206;-95
2022/12/18 07:52:16;;;;;;;14.67;10.93;;;-2.50;99.90;;;;;;5057561;28;20216;-94
2022/12/18 07:54:52;;;;;;;14.73;11.30;;;-2.50;99.90;;;;;;5057366;28;20311;-95
2022/12/18 07:57:22;;;;;;;16.03;11.70;;;-2.40;99.90;;;;;;5056695;28;20198;-96
2022/12/18 08:00:12;;;;;;;13.10;10.27;;;-2.40;99.90;;;;;;5056778;28;20202;-95
2022/12/18 08:02:41;;;;;;;15.10;10.23;;;-2.30;99.90;;;;;;5061826;28;20297;-95
2022/12/18 08:05:10;;;;;;;17.13;12.37;;;-2.20;99.90;;;;;;5057437;28;20226;-96
2022/12/18 08:07:38;;;;;;;11.23;10.03;;;-2.20;99.90;;;;;;5057119;28;20205;-96
2022/12/18 08:10:08;;;;;;;15.70;12.47;;;-2.10;99.90;;;;;;5056482;28;20259;-95
2022/12/18 08:12:38;;;;;;;13.53;10.80;;;-2.00;99.90;;;;;;5056153;28;20218;-95
2022/12/18 08:15:08;;;;;;;14.17;10.93;;;-2.00;99.90;;;;;;5056249;28;20374;-96
2022/12/18 08:17:36;;;;;;;15.97;12.23;;;-1.90;99.90;;;;;;5056875;28;20208;-95
2022/12/18 08:20:05;;;;;;;16.80;12.50;;;-1.90;99.90;;;;;;5057726;28;20217;-94
2022/12/18 08:22:39;;;;;;;14.63;12.67;;;-1.90;99.90;;;;;;5060371;28;20208;-96
2022/12/18 08:25:08;;;;;;;17.43;13.00;;;-1.80;99.90;;;;;;5058132;28;20221;-95
2022/12/18 08:27:38;;;;;;;15.57;11.00;;;-1.70;99.90;;;;;;5056899;28;20216;-95
2022/12/18 08:30:08;;;;;;;22.17;12.77;;;-1.70;99.90;;;;;;5058270;28;20208;-95
2022/12/18 08:32:36;;;;;;;21.70;12.20;;;-1.60;99.90;;;;;;5063552;28;20216;-95
2022/12/18 08:35:07;;;;;;;11.83;10.03;;;-1.50;99.90;;;;;;5068787;28;20225;-96
2022/12/18 08:37:37;;;;;;;20.23;13.10;;;-1.50;99.90;;;;;;5062369;28;20296;-95
2022/12/18 08:40:07;;;;;;;17.40;12.40;;;-1.40;99.90;;;;;;5057206;28;20210;-96
2022/12/18 08:45:24;;;;;;;12.93;10.80;;;-1.30;99.90;;;;;;5057732;28;20252;-96
2022/12/18 08:47:53;;;;;;;17.77;12.40;;;-1.30;99.90;;;;;;5056918;28;20278;-96
2022/12/18 08:50:21;;;;;;;15.20;11.87;;;-1.30;99.90;;;;;;5057439;28;20232;-96
2022/12/18 08:52:50;;;;;;;13.63;11.43;;;-1.20;99.90;;;;;;5058011;28;20236;-95
2022/12/18 08:55:19;;;;;;;20.27;12.60;;;-1.10;99.90;;;;;;5056752;28;20293;-96
2022/12/18 08:57:51;;;;;;;12.63;11.30;;;-1.10;99.90;;;;;;5055916;28;20211;-96
2022/12/18 09:00:19;;;;;;;18.63;12.50;;;-1.00;99.90;;;;;;5056744;28;20202;-96
2022/12/18 09:02:48;;;;;;;12.60;11.03;;;-1.00;99.90;;;;;;5057051;28;20218;-96
2022/12/18 09:05:17;;;;;;;19.27;11.77;;;-0.90;99.90;;;;;;5057040;28;20233;-96
2022/12/18 09:07:45;;;;;;;18.60;13.07;;;-0.90;99.90;;;;;;5057575;28;20235;-95
2022/12/18 09:10:14;;;;;;;18.13;12.87;;;-0.90;99.90;;;;;;5060671;28;20210;-95
2022/12/18 09:12:42;;;;;;;16.23;13.57;;;-0.90;99.90;;;;;;5057426;28;20233;-96
2022/12/18 09:15:12;;;;;;;17.00;13.13;;;-0.80;99.90;;;;;;5057402;28;20218;-95
2022/12/18 09:17:41;;;;;;;28.90;12.87;;;-0.90;99.90;;;;;;5056601;28;20223;-95
2022/12/18 09:20:11;;;;;;;17.40;13.00;;;-0.90;99.90;;;;;;5059926;28;20205;-96
2022/12/18 09:22:39;;;;;;;22.30;14.03;;;-0.90;99.90;;;;;;5058213;28;20202;-94
2022/12/18 09:25:08;;;;;;;17.57;14.00;;;-0.90;99.90;;;;;;5056679;28;20289;-96
2022/12/18 09:27:37;;;;;;;20.07;14.50;;;-0.90;99.90;;;;;;5056639;28;20316;-95
2022/12/18 09:30:07;;;;;;;16.13;13.17;;;-0.90;99.90;;;;;;5055487;28;20305;-96
2022/12/18 09:32:37;;;;;;;14.43;12.53;;;-0.90;99.90;;;;;;5055403;28;20208;-96
2022/12/18 09:35:06;;;;;;;17.30;12.50;;;-0.90;99.90;;;;;;5055816;28;20236;-96
2022/12/18 09:37:36;;;;;;;16.90;13.43;;;-0.80;99.90;;;;;;5056310;28;20202;-96
2022/12/18 09:40:06;;;;;;;14.07;12.43;;;-0.80;99.90;;;;;;5056278;28;20206;-95
2022/12/18 09:42:35;;;;;;;19.57;13.40;;;-0.80;99.90;;;;;;5055669;28;20305;-96
2022/12/18 09:45:05;;;;;;;16.53;12.30;;;-0.70;99.90;;;;;;5055071;28;20321;-96
2022/12/18 09:47:40;;;;;;;16.03;12.87;;;-0.70;99.90;;;;;;5055724;28;20232;-96
2022/12/18 09:50:23;;;;;;;18.33;13.83;;;-0.60;99.90;;;;;;5055330;28;20215;-95
2022/12/18 09:52:55;;;;;;;15.07;11.77;;;-0.60;99.90;;;;;;5055444;28;20213;-96
2022/12/18 09:55:30;;;;;;;29.07;14.17;;;-0.60;99.90;;;;;;5055608;28;20316;-95
2022/12/18 09:58:13;;;;;;;27.57;13.07;;;-0.60;99.90;;;;;;5056572;28;20206;-96
2022/12/18 10:00:45;;;;;;;17.47;13.03;;;-0.60;99.90;;;;;;5057022;28;20220;-96
2022/12/18 10:03:19;;;;;;;16.50;12.63;;;-0.60;99.90;;;;;;5056730;28;20264;-96
2022/12/18 10:05:59;;;;;;;15.33;11.33;;;-0.50;99.90;;;;;;5059177;28;20224;-96
2022/12/18 10:08:38;;;;;;;16.53;12.80;;;-0.50;99.90;;;;;;5060359;28;20300;-96
2022/12/18 10:11:23;;;;;;;14.27;11.17;;;-0.50;99.90;;;;;;5061676;28;20202;-96
2022/12/18 10:13:58;;;;;;;15.60;11.83;;;-0.50;99.90;;;;;;5055741;28;20233;-96
2022/12/18 10:16:36;;;;;;;13.70;11.77;;;-0.50;99.90;;;;;;5055472;28;20244;-96
2022/12/18 10:19:23;;;;;;;16.70;10.57;;;-0.50;99.90;;;;;;5056363;28;20289;-96
2022/12/18 10:21:59;;;;;;;13.90;11.77;;;-0.50;99.90;;;;;;5056479;28;20293;-96
2022/12/18 10:24:36;;;;;;;14.70;11.47;;;-0.50;99.90;;;;;;5056703;28;20309;-96
2022/12/18 10:27:14;;;;;;;15.33;12.07;;;-0.60;99.90;;;;;;5061335;28;20209;-95
2022/12/18 10:29:44;;;;;;;16.43;12.37;;;-0.50;99.90;;;;;;5058896;28;20205;-96
2022/12/18 10:32:17;;;;;;;15.90;11.93;;;-0.50;99.90;;;;;;5056532;28;20263;-96
2022/12/18 10:34:56;;;;;;;13.60;10.90;;;-0.40;99.90;;;;;;5058685;28;20229;-96
2022/12/18 10:37:30;;;;;;;17.17;13.03;;;-0.50;99.90;;;;;;5059407;28;20288;-96
2022/12/18 10:40:11;;;;;;;13.40;10.83;;;-0.40;99.90;;;;;;5059240;28;20206;-96
2022/12/18 10:42:47;;;;;;;14.80;11.77;;;-0.40;99.90;;;;;;5063241;28;20269;-95
2022/12/18 10:45:17;;;;;;;15.03;12.27;;;-0.40;99.90;;;;;;5054902;28;20222;-96
2022/12/18 10:47:49;;;;;;;26.70;12.23;;;-0.40;99.90;;;;;;5055442;28;20198;-96
2022/12/18 10:50:28;;;;;;;15.73;11.00;;;-0.40;99.90;;;;;;5055170;28;20278;-96
2022/12/18 10:53:21;;;;;;;19.30;13.03;;;-0.40;99.90;;;;;;5055087;28;20210;-96
2022/12/18 10:55:50;;;;;;;18.17;12.03;;;-0.50;99.90;;;;;;5056117;28;20209;-96
2022/12/18 10:58:24;;;;;;;12.47;11.23;;;-0.50;99.90;;;;;;5066006;28;20210;-96
2022/12/18 11:01:10;;;;;;;17.90;12.17;;;-0.50;99.90;;;;;;5064591;28;20235;-95
2022/12/18 11:03:40;;;;;;;13.80;10.53;;;-0.60;99.90;;;;;;5062158;28;20205;-96
2022/12/18 11:06:27;;;;;;;16.03;10.80;;;-0.60;99.90;;;;;;5066699;28;20197;-95
2022/12/18 11:09:00;;;;;;;18.30;12.33;;;-0.60;99.90;;;;;;5058400;28;20206;-95
2022/12/18 11:11:30;;;;;;;18.20;12.07;;;-0.60;99.90;;;;;;5057716;28;20210;-96
2022/12/18 11:14:05;;;;;;;14.90;11.23;;;-0.60;99.90;;;;;;5058920;28;20233;-96
2022/12/18 11:16:37;;;;;;;17.60;11.97;;;-0.60;99.90;;;;;;5059724;28;20229;-95
2022/12/18 11:19:17;;;;;;;15.17;11.17;;;-0.60;99.90;;;;;;5060683;28;20201;-96
2022/12/18 11:21:57;;;;;;;16.77;11.87;;;-0.60;99.90;;;;;;5063399;28;20212;-96
2022/12/18 11:24:35;;;;;;;26.47;12.00;;;-0.60;99.90;;;;;;5061026;28;20224;-95
2022/12/18 11:27:06;;;;;;;22.70;13.27;;;-0.60;99.90;;;;;;5061356;28;20238;-96
2022/12/18 11:29:39;;;;;;;16.00;12.27;;;-0.60;99.90;;;;;;5064516;28;20300;-96
2022/12/18 11:32:40;;;;;;;15.57;11.90;;;-0.60;99.90;;;;;;5059171;28;20259;-96
2022/12/18 11:35:21;;;;;;;21.37;12.43;;;-0.50;99.90;;;;;;5061793;28;20298;-96
2022/12/18 11:37:59;;;;;;;19.37;12.57;;;-0.60;99.90;;;;;;5067140;28;20271;-96
2022/12/18 11:40:35;;;;;;;19.13;13.47;;;-0.60;99.90;;;;;;5065399;28;20292;-96
2022/12/18 11:43:14;;;;;;;13.90;12.03;;;-0.60;99.90;;;;;;5064178;28;20300;-96
2022/12/18 11:45:50;;;;;;;20.03;14.00;;;-0.60;99.90;;;;;;5058760;28;20313;-96
2022/12/18 11:48:23;;;;;;;30.50;14.97;;;-0.40;99.90;;;;;;5058535;28;20213;-96
2022/12/18 11:50:53;;;;;;;15.93;12.70;;;-0.40;99.90;;;;;;5058545;28;20209;-95
2022/12/18 11:53:25;;;;;;;16.20;13.63;;;-0.40;99.90;;;;;;5060544;28;20269;-96
2022/12/18 11:56:14;;;;;;;21.53;13.97;;;-0.30;99.90;;;;;;5061501;28;20228;-95
2022/12/18 11:58:48;;;;;;;13.10;11.70;;;-0.20;99.90;;;;;;5058710;28;20216;-96
2022/12/18 12:01:37;;;;;;;16.83;13.07;;;-0.20;99.90;;;;;;5057583;28;20213;-95
2022/12/18 12:04:33;;;;;;;15.50;12.20;;;-0.20;99.90;;;;;;5057687;28;20234;-95
2022/12/18 12:07:13;;;;;;;18.13;12.50;;;-0.20;99.90;;;;;;5056794;28;20209;-95
2022/12/18 12:09:54;;;;;;;15.00;11.80;;;-0.30;99.90;;;;;;5057391;28;20212;-95
2022/12/18 12:12:45;;;;;;;19.17;13.37;;;-0.40;99.90;;;;;;5057330;28;20209;-95
2022/12/18 12:15:28;;;;;;;27.73;12.80;;;-0.30;99.90;;;;;;5056636;28;20297;-95
2022/12/18 12:18:06;;;;;;;13.70;11.90;;;-0.40;99.90;;;;;;5057679;28;20201;-95
2022/12/18 12:20:48;;;;;;;21.07;12.10;;;-0.40;99.90;;;;;;5057142;28;20270;-95
2022/12/18 12:23:27;;;;;;;18.93;12.87;;;-0.40;99.90;;;;;;5057096;28;20285;-95
2022/12/18 12:26:03;;;;;;;16.80;13.43;;;-0.30;99.90;;;;;;5057332;28;20257;-95
2022/12/18 12:28:53;;;;;;;13.80;12.20;;;-0.40;99.90;;;;;;5057093;28;20296;-95
2022/12/18 12:31:34;;;;;;;16.67;12.93;;;-0.30;99.90;;;;;;5058226;28;20225;-95
2022/12/18 12:34:17;;;;;;;12.97;11.17;;;-0.20;99.90;;;;;;5057358;28;20225;-95
2022/12/18 12:37:00;;;;;;;14.90;12.33;;;-0.20;99.90;;;;;;5056482;28;20316;-95
2022/12/18 12:39:34;;;;;;;19.20;11.90;;;-0.20;99.90;;;;;;5057885;28;20213;-95
2022/12/18 12:44:58;;;;;;;14.43;11.80;;;-0.20;99.90;;;;;;5063199;28;20253;-95
2022/12/18 12:47:32;;;;;;;21.43;15.13;;;-0.10;99.90;;;;;;5071745;28;20239;-95
2022/12/18 12:50:03;;;;;;;18.27;12.93;;;-0.10;99.90;;;;;;5063702;28;20228;-95
2022/12/18 12:52:40;;;;;;;18.07;14.60;;;-0.10;99.90;;;;;;5056517;28;20205;-95
2022/12/18 12:55:17;;;;;;;16.27;11.40;;;-0.20;99.90;;;;;;5055909;28;20279;-95
2022/12/18 12:57:57;;;;;;;13.77;12.00;;;-0.20;99.90;;;;;;5055563;28;20208;-95
2022/12/18 13:00:28;;;;;;;14.87;12.40;;;-0.20;99.90;;;;;;5056119;28;20214;-96
2022/12/18 13:03:02;;;;;;;14.77;12.00;;;-0.20;99.90;;;;;;5056344;28;20213;-94
2022/12/18 13:05:35;;;;;;;19.93;12.90;;;-0.20;99.90;;;;;;5055717;28;20225;-95
2022/12/18 13:08:07;;;;;;;15.53;12.33;;;-0.20;99.90;;;;;;5055741;28;20261;-95
2022/12/18 13:10:37;;;;;;;14.43;11.97;;;-0.30;99.90;;;;;;5055643;28;20206;-95